Time;durP1;ratioP1;P1;durP2;ratioP2;P2;SDS_P1;SDS_P2;PMS_P1;PMS_P2;Temp;Humidity;BMP_temperature;BMP_pressure;BME280_temperature;BME280_humidity;BME280_pressure;Samples;Min_cycle;Max_cycle;Signal;HPM_P1;HPM_P2
2023/04/25 00:00:34;;;;;;;0.98;0.88;;;;;;;19.31;48.30;96063.38;10558835;28;20062;-47
2023/04/25 00:05:56;;;;;;;0.93;0.70;;;;;;;19.31;48.25;96057.19;10545130;28;20134;-46
2023/04/25 00:11:16;;;;;;;0.75;0.60;;;;;;;19.30;48.26;96052.91;10557465;28;20480;-49
2023/04/25 00:16:35;;;;;;;0.68;0.60;;;;;;;19.29;48.26;96056.75;10544089;28;20123;-47
2023/04/25 00:21:55;;;;;;;0.65;0.65;;;;;;;19.27;48.24;96057.09;10557936;28;20051;-49
2023/04/25 00:27:15;;;;;;;0.90;0.68;;;;;;;19.27;48.19;96059.00;10549330;28;20055;-49
2023/04/25 00:32:35;;;;;;;1.40;0.70;;;;;;;19.27;48.23;96061.72;10544087;28;20052;-48
2023/04/25 00:37:54;;;;;;;0.80;0.80;;;;;;;19.26;48.18;96066.31;10557238;28;20063;-48
2023/04/25 00:43:14;;;;;;;0.98;0.63;;;;;;;19.25;48.15;96051.25;10557098;28;20089;-49
2023/04/25 00:48:33;;;;;;;1.08;0.70;;;;;;;19.24;48.21;96063.16;10543311;28;20048;-48
2023/04/25 00:53:53;;;;;;;1.25;0.77;;;;;;;19.24;48.27;96056.97;10556518;28;20097;-46
2023/04/25 00:59:13;;;;;;;1.25;0.73;;;;;;;19.23;48.19;96050.81;10556595;28;20044;-47
2023/04/25 01:04:33;;;;;;;0.80;0.70;;;;;;;19.22;48.18;96056.53;10556641;28;20036;-47
2023/04/25 01:09:52;;;;;;;0.77;0.77;;;;;;;19.21;48.34;96046.84;10556042;28;20047;-48
2023/04/25 01:15:11;;;;;;;0.70;0.70;;;;;;;19.20;48.11;96042.59;10555801;28;20044;-48
2023/04/25 01:20:32;;;;;;;0.73;0.73;;;;;;;19.20;48.24;96039.88;10555625;28;20040;-48
2023/04/25 01:25:51;;;;;;;0.80;0.80;;;;;;;19.19;48.19;96044.50;10550948;28;20048;-46
2023/04/25 01:31:12;;;;;;;0.70;0.70;;;;;;;19.17;48.39;96036.75;10526462;28;20078;-50
2023/04/25 01:36:32;;;;;;;0.88;0.80;;;;;;;19.17;48.21;96030.56;10539701;28;20039;-47
2023/04/25 01:41:51;;;;;;;1.13;0.80;;;;;;;19.17;48.16;96033.25;10554818;28;20044;-48
2023/04/25 01:47:11;;;;;;;0.80;0.80;;;;;;;19.16;48.07;96032.44;10541008;28;20201;-48
2023/04/25 01:52:30;;;;;;;1.13;0.80;;;;;;;19.16;48.11;96034.38;10554341;28;20035;-49
2023/04/25 01:57:50;;;;;;;1.08;0.90;;;;;;;19.14;48.14;96031.22;10538843;28;20051;-49
2023/04/25 02:03:12;;;;;;;0.77;0.75;;;;;;;19.12;48.16;96038.88;10538723;28;20051;-49
2023/04/25 02:08:32;;;;;;;1.15;0.90;;;;;;;19.12;48.09;96039.66;10525036;28;20105;-47
2023/04/25 02:13:52;;;;;;;0.98;0.88;;;;;;;19.11;48.17;96040.81;10553679;28;20044;-46
2023/04/25 02:19:26;;;;;;;0.68;0.68;;;;;;;19.10;48.00;96030.34;10553410;28;20059;-47
2023/04/25 02:24:46;;;;;;;0.90;0.80;;;;;;;19.09;48.03;96034.97;10551862;28;20400;-47
2023/04/25 02:30:06;;;;;;;0.73;0.73;;;;;;;19.09;47.99;96028.75;10553103;28;20047;-46
2023/04/25 02:35:26;;;;;;;0.80;0.80;;;;;;;19.08;48.00;96027.97;10537214;28;20040;-47
2023/04/25 02:40:47;;;;;;;1.52;0.98;;;;;;;19.06;47.87;96008.63;10537594;28;20070;-47
2023/04/25 02:46:07;;;;;;;0.75;0.70;;;;;;;19.06;47.98;96008.63;10552772;28;20044;-46
2023/04/25 02:51:26;;;;;;;1.00;0.90;;;;;;;19.05;47.96;95996.28;10552654;28;20540;-46
2023/04/25 02:56:45;;;;;;;1.00;0.90;;;;;;;19.04;47.99;95993.91;10523977;28;20109;-46
2023/04/25 03:02:10;;;;;;;0.90;0.90;;;;;;;19.03;47.87;95993.09;10537225;28;20403;-48
2023/04/25 03:07:29;;;;;;;0.90;0.80;;;;;;;19.02;47.88;95988.84;10538877;28;20079;-48
2023/04/25 03:12:49;;;;;;;0.82;0.82;;;;;;;19.02;48.00;95990.75;10552266;28;20063;-48
2023/04/25 03:18:09;;;;;;;0.88;0.88;;;;;;;19.02;47.95;95986.13;10552199;28;20044;-48
2023/04/25 03:23:28;;;;;;;0.95;0.95;;;;;;;19.00;47.92;95988.41;10536783;28;20102;-47
2023/04/25 03:28:48;;;;;;;1.08;0.90;;;;;;;19.00;47.86;95988.41;10537797;28;20102;-50
2023/04/25 03:34:08;;;;;;;1.20;0.90;;;;;;;18.99;47.75;95992.22;10536618;28;20048;-46
2023/04/25 03:39:28;;;;;;;0.80;0.80;;;;;;;18.98;47.82;95985.25;10536527;28;20044;-46
2023/04/25 03:44:49;;;;;;;0.90;0.85;;;;;;;18.96;47.93;95987.50;10523084;28;20056;-49
2023/04/25 03:50:10;;;;;;;0.95;0.90;;;;;;;18.96;47.70;95987.50;10543942;28;20480;-48
2023/04/25 03:55:30;;;;;;;1.00;0.90;;;;;;;18.95;47.81;95985.91;10543841;28;20051;-47
2023/04/25 04:00:50;;;;;;;0.70;0.70;;;;;;;18.94;47.74;95985.13;10543677;28;20419;-46
2023/04/25 04:06:11;;;;;;;0.90;0.88;;;;;;;18.94;47.63;95995.16;10543410;28;20040;-49
2023/04/25 04:11:33;;;;;;;0.70;0.70;;;;;;;18.93;47.76;95988.16;10543145;28;20067;-47
2023/04/25 04:16:53;;;;;;;1.58;0.90;;;;;;;18.92;47.70;95990.09;10544810;28;20044;-49
2023/04/25 04:22:14;;;;;;;0.90;0.90;;;;;;;18.93;47.69;95977.38;10542816;28;20101;-49
2023/04/25 04:27:34;;;;;;;1.10;0.90;;;;;;;18.92;47.76;95978.50;10548526;28;20529;-50
2023/04/25 04:33:21;;;;;;;1.13;0.90;;;;;;;18.92;47.73;95986.63;10544109;28;20078;-48
2023/04/25 04:38:46;;;;;;;;;;;;;;;18.93;47.66;95991.69;10542490;28;20059;-49
2023/04/25 04:44:15;;;;;;;0.93;0.90;;;;;;;18.94;47.72;95989.75;10541918;28;19927;-48
2023/04/25 04:50:04;;;;;;;0.88;0.88;;;;;;;18.96;47.67;95995.59;10481678;28;20063;-47
2023/04/25 04:55:46;;;;;;;0.90;0.90;;;;;;;18.98;47.51;95993.34;10542336;28;20069;-47
2023/04/25 05:01:35;;;;;;;;;;;;;;;19.00;47.52;95985.69;10537862;28;20427;-48
2023/04/25 05:07:21;;;;;;;0.80;0.80;;;;;;;19.04;47.52;95996.59;10533630;28;20271;-47
2023/04/25 05:12:59;;;;;;;1.10;0.98;;;;;;;19.06;47.28;95988.94;10540663;28;20632;-47
2023/04/25 05:18:27;;;;;;;1.20;1.00;;;;;;;19.10;47.06;95992.53;10555935;28;20048;-48
2023/04/25 05:23:58;;;;;;;0.90;0.90;;;;;;;19.13;47.08;95991.84;10540241;28;20044;-47
2023/04/25 05:29:44;;;;;;;1.02;0.80;;;;;;;19.16;46.97;95983.06;10527156;28;20056;-49
2023/04/25 05:35:30;;;;;;;0.95;0.82;;;;;;;19.19;46.87;95981.59;10522625;28;20530;-47
2023/04/25 05:40:49;;;;;;;0.80;0.80;;;;;;;19.23;46.86;95985.19;10554942;28;20044;-48
2023/04/25 05:46:26;;;;;;;0.95;0.90;;;;;;;19.26;46.88;95990.69;10539349;28;20051;-48
2023/04/25 05:52:02;;;;;;;0.90;0.90;;;;;;;19.28;46.88;95990.34;10554286;28;20039;-47
2023/04/25 05:57:36;;;;;;;0.82;0.82;;;;;;;19.33;46.76;95995.53;10538873;28;20044;-47
2023/04/25 06:02:57;;;;;;;0.93;0.90;;;;;;;19.35;46.66;95990.56;10538714;28;20412;-47
2023/04/25 06:08:16;;;;;;;0.90;0.90;;;;;;;19.41;46.64;95996.53;10552924;28;20040;-46
2023/04/25 06:13:36;;;;;;;0.85;0.85;;;;;;;19.42;46.59;95982.66;10538245;28;20060;-48
2023/04/25 06:18:55;;;;;;;1.70;1.00;;;;;;;19.45;46.67;95992.00;10538171;28;20060;-47
2023/04/25 06:24:15;;;;;;;0.88;0.88;;;;;;;19.49;46.70;95985.56;10550802;28;20048;-47
2023/04/25 06:29:34;;;;;;;0.88;0.88;;;;;;;19.54;46.64;95977.22;10464727;28;20057;-48
2023/04/25 06:34:54;;;;;;;1.15;0.80;;;;;;;19.59;46.56;95983.50;10456275;28;20475;-48
2023/04/25 06:40:17;;;;;;;1.25;1.00;;;;;;;19.63;46.54;95985.19;10468499;28;20048;-48
2023/04/25 06:45:36;;;;;;;0.95;0.90;;;;;;;19.64;46.45;95978.66;10454000;28;20052;-48
2023/04/25 06:50:56;;;;;;;0.90;0.90;;;;;;;19.68;46.51;95984.94;10454964;28;20045;-47
2023/04/25 06:56:17;;;;;;;1.25;0.80;;;;;;;19.70;46.49;95976.50;10467871;28;20440;-48
2023/04/25 07:01:44;;;;;;;0.82;0.77;;;;;;;19.74;46.36;95972.78;10468987;28;20060;-48
2023/04/25 07:07:17;;;;;;;0.93;0.90;;;;;;;19.76;46.35;95961.63;10467876;28;20037;-48
2023/04/25 07:12:44;;;;;;;0.93;0.85;;;;;;;19.81;46.65;95963.28;10448089;28;20057;-46
2023/04/25 07:18:04;;;;;;;1.00;1.00;;;;;;;19.84;46.70;95966.09;10467598;28;20118;-48
2023/04/25 07:23:24;;;;;;;0.80;0.80;;;;;;;19.86;46.69;95971.16;10474439;28;20040;-48
2023/04/25 07:28:44;;;;;;;0.90;0.80;;;;;;;19.89;46.73;95975.84;10517994;28;20063;-49
2023/04/25 07:34:03;;;;;;;2.88;0.90;;;;;;;19.92;46.90;95975.94;10559853;28;20431;-46
2023/04/25 07:39:23;;;;;;;18.88;6.63;;;;;;;19.94;47.40;95976.38;10530735;28;20056;-47
2023/04/25 07:44:43;;;;;;;28.23;9.40;;;;;;;19.98;48.78;95971.09;10559203;28;20040;-48
2023/04/25 07:50:05;;;;;;;16.27;6.22;;;;;;;20.01;48.71;95961.47;10530213;28;20121;-48
2023/04/25 07:55:26;;;;;;;12.00;5.25;;;;;;;20.05;49.18;95955.06;10543490;28;20047;-48
2023/04/25 08:00:57;;;;;;;12.80;4.75;;;;;;;20.09;48.71;95957.81;10543440;28;20048;-48
2023/04/25 08:06:36;;;;;;;11.43;4.15;;;;;;;20.14;48.51;95961.06;10558519;28;20059;-48
2023/04/25 08:12:07;;;;;;;10.75;3.97;;;;;;;20.18;48.47;95953.03;10542875;28;20043;-48
2023/04/25 08:17:27;;;;;;;8.98;3.28;;;;;;;20.21;48.24;95946.13;10542942;28;20044;-49
2023/04/25 08:22:48;;;;;;;6.60;3.30;;;;;;;20.21;44.44;95946.94;10542827;28;20480;-47
2023/04/25 08:28:34;;;;;;;8.98;2.58;;;;;;;20.23;46.39;95949.28;10534640;28;20496;-47
2023/04/25 08:33:55;;;;;;;5.60;2.70;;;;;;;20.25;46.12;95942.41;10541677;28;20407;-48
2023/04/25 08:39:20;;;;;;;8.95;2.63;;;;;;;20.27;46.09;95955.59;10542225;28;20487;-47
2023/04/25 08:44:59;;;;;;;;;;;;;;;20.28;45.75;95955.22;10557656;28;20036;-48
2023/04/25 08:50:26;;;;;;;4.45;2.00;;;;;;;20.31;45.76;95956.47;10570325;28;19927;-47
2023/04/25 08:55:46;;;;;;;5.25;2.20;;;;;;;20.31;45.90;95965.34;10541502;28;20044;-48
2023/04/25 09:01:06;;;;;;;5.07;1.88;;;;;;;20.33;45.91;95968.50;10541035;28;20044;-46
2023/04/25 09:06:34;;;;;;;4.18;1.98;;;;;;;20.33;46.08;95968.50;10527128;28;20044;-47
2023/04/25 09:11:55;;;;;;;3.85;2.10;;;;;;;20.34;46.45;95970.03;10540780;28;20044;-46
2023/04/25 09:17:17;;;;;;;3.30;2.10;;;;;;;20.33;46.66;95967.72;10540524;28;20047;-48
2023/04/25 09:22:46;;;;;;;3.53;1.90;;;;;;;20.33;46.80;95967.72;10540428;28;20059;-48
2023/04/25 09:28:07;;;;;;;4.43;1.70;;;;;;;20.34;46.88;95967.34;10529378;28;20048;-48
2023/04/25 09:33:37;;;;;;;2.33;1.50;;;;;;;20.35;46.89;95968.94;10539929;28;20040;-48
2023/04/25 09:38:59;;;;;;;2.45;1.50;;;;;;;20.36;46.95;95964.28;10526373;28;20044;-48
2023/04/25 09:44:25;;;;;;;2.67;1.45;;;;;;;20.37;47.08;95967.81;10538470;28;20500;-48
2023/04/25 09:49:46;;;;;;;2.63;1.58;;;;;;;20.37;47.05;95954.28;10539214;28;20040;-48
2023/04/25 09:55:06;;;;;;;1.92;1.40;;;;;;;20.38;47.03;95950.44;10539009;28;20047;-48
2023/04/25 10:00:28;;;;;;;2.13;1.50;;;;;;;20.37;47.22;95943.47;10538835;28;20480;-49
2023/04/25 10:05:49;;;;;;;2.63;1.40;;;;;;;20.40;47.02;95937.34;10553697;28;20044;-47
2023/04/25 10:11:14;;;;;;;1.98;1.30;;;;;;;20.40;47.27;95927.28;10538308;28;20047;-48
2023/04/25 10:16:33;;;;;;;1.08;0.98;;;;;;;20.40;47.31;95946.22;10553468;28;20044;-46
2023/04/25 10:22:04;;;;;;;3.30;1.50;;;;;;;20.40;47.39;95967.88;10553427;28;20040;-48
2023/04/25 10:27:23;;;;;;;2.03;1.52;;;;;;;20.40;47.32;95996.84;10544517;28;20044;-49
2023/04/25 10:32:45;;;;;;;2.55;1.50;;;;;;;20.41;47.33;95995.72;10553017;28;20047;-47
2023/04/25 10:38:09;;;;;;;3.00;1.35;;;;;;;20.40;47.46;96007.66;10552865;28;20081;-47
2023/04/25 10:43:45;;;;;;;1.98;1.30;;;;;;;20.41;47.51;96009.25;10552871;28;20048;-46
2023/04/25 10:49:05;;;;;;;1.75;1.20;;;;;;;20.42;47.38;96010.81;10552606;28;20044;-48
2023/04/25 10:54:25;;;;;;;3.03;1.20;;;;;;;20.41;47.62;96020.06;10553052;28;20058;-48
2023/04/25 10:59:45;;;;;;;1.48;1.30;;;;;;;20.40;47.53;96032.00;10561329;28;20048;-47
2023/04/25 11:05:05;;;;;;;1.20;1.00;;;;;;;20.41;47.61;96039.00;10561011;28;20044;-49
2023/04/25 11:10:29;;;;;;;1.10;0.90;;;;;;;20.41;47.63;96060.66;10560765;28;20048;-48
2023/04/25 11:15:52;;;;;;;1.77;1.13;;;;;;;20.39;47.63;96065.63;10560691;28;20040;-48
2023/04/25 11:21:11;;;;;;;1.45;1.05;;;;;;;20.39;47.58;96069.09;10560374;28;20487;-48
2023/04/25 11:26:31;;;;;;;1.75;1.10;;;;;;;20.38;47.71;96072.94;10554059;28;20048;-50
2023/04/25 11:31:50;;;;;;;1.17;1.10;;;;;;;20.38;47.74;96070.22;10560001;28;20404;-49
2023/04/25 11:37:11;;;;;;;1.13;1.00;;;;;;;20.38;47.68;96077.56;10559720;28;20048;-49
2023/04/25 11:42:31;;;;;;;1.25;1.00;;;;;;;20.37;47.66;96079.50;10559563;28;20504;-46
2023/04/25 11:47:51;;;;;;;1.85;1.00;;;;;;;20.37;47.98;96081.41;10559259;28;20484;-47
2023/04/25 11:53:11;;;;;;;1.45;1.00;;;;;;;20.37;47.94;96079.50;10559127;28;20067;-50
2023/04/25 11:58:30;;;;;;;1.08;0.93;;;;;;;20.37;48.15;96079.50;10558963;28;20055;-47
2023/04/25 12:03:50;;;;;;;1.65;1.40;;;;;;;20.37;48.28;96089.53;10558680;28;20044;-48
2023/04/25 12:09:11;;;;;;;2.28;0.98;;;;;;;20.36;48.50;96088.72;10557288;28;20043;-49
2023/04/25 12:14:32;;;;;;;1.00;0.90;;;;;;;20.35;48.45;96074.41;10558213;28;20051;-48
2023/04/25 12:19:52;;;;;;;3.08;2.20;;;;;;;20.29;44.68;96086.63;10558132;28;20048;-48
2023/04/25 12:25:30;;;;;;;2.65;2.10;;;;;;;19.89;42.91;96087.47;10555334;28;20052;-53
2023/04/25 12:31:01;;;;;;;2.80;2.33;;;;;;;19.63;41.23;96079.75;10557602;28;20043;-48
2023/04/25 12:36:20;;;;;;;2.47;2.17;;;;;;;19.52;40.62;96075.94;10557495;28;20039;-46
2023/04/25 12:41:40;;;;;;;2.47;2.20;;;;;;;19.31;39.86;96070.72;10557291;28;20051;-47
2023/04/25 12:47:00;;;;;;;2.85;1.77;;;;;;;19.62;41.98;96069.28;10556984;28;20040;-46
2023/04/25 12:52:19;;;;;;;4.40;1.63;;;;;;;19.83;43.10;96071.84;10556561;28;20500;-46
2023/04/25 12:57:39;;;;;;;1.52;1.40;;;;;;;19.93;43.19;96061.34;10556491;28;20401;-48
2023/04/25 13:02:58;;;;;;;4.03;1.60;;;;;;;20.00;43.42;96058.03;10556314;28;20040;-47
2023/04/25 13:08:19;;;;;;;1.75;1.30;;;;;;;20.05;43.47;96062.41;10555994;28;20043;-48
2023/04/25 13:13:39;;;;;;;1.98;1.38;;;;;;;20.07;43.52;96066.34;10555723;28;20097;-49
2023/04/25 13:18:59;;;;;;;2.67;1.48;;;;;;;20.10;43.67;96067.56;10555528;28;20048;-49
2023/04/25 13:24:18;;;;;;;1.85;1.38;;;;;;;20.11;43.84;96077.22;10555608;28;20067;-49
2023/04/25 13:29:40;;;;;;;1.38;1.20;;;;;;;20.14;43.71;96081.97;10555359;28;20040;-50
2023/04/25 13:35:00;;;;;;;1.75;1.42;;;;;;;20.15;43.64;96089.75;10554994;28;20043;-48
2023/04/25 13:40:20;;;;;;;1.52;1.42;;;;;;;20.15;43.53;96087.03;10554882;28;20044;-49
2023/04/25 13:45:40;;;;;;;1.45;1.30;;;;;;;20.18;43.57;96093.66;10554688;28;20487;-49
2023/04/25 13:51:00;;;;;;;2.80;1.27;;;;;;;20.21;43.60;96100.28;10540960;28;20052;-48
2023/04/25 13:56:20;;;;;;;2.47;1.50;;;;;;;20.22;43.57;96099.16;10554261;28;20048;-48
2023/04/25 14:01:39;;;;;;;2.58;1.48;;;;;;;20.22;43.54;96094.53;10554201;28;20055;-48
2023/04/25 14:06:58;;;;;;;3.85;1.95;;;;;;;20.19;40.32;96106.06;10554065;28;20040;-48
2023/04/25 14:12:18;;;;;;;1.63;1.17;;;;;;;20.17;42.55;96104.81;10553789;28;20047;-48
2023/04/25 14:17:38;;;;;;;2.40;2.03;;;;;;;20.18;42.71;96126.13;10540196;28;20048;-46
2023/04/25 14:22:57;;;;;;;2.42;1.52;;;;;;;20.18;43.10;96123.41;10553511;28;20093;-48
2023/04/25 14:28:17;;;;;;;1.58;1.40;;;;;;;20.21;43.34;96121.94;10539216;28;20078;-48
2023/04/25 14:33:39;;;;;;;2.97;1.98;;;;;;;20.19;39.03;96110.66;10552789;28;20404;-48
2023/04/25 14:38:59;;;;;;;2.17;1.80;;;;;;;20.07;35.05;96125.03;10553085;28;20056;-49
2023/04/25 14:44:19;;;;;;;2.60;1.70;;;;;;;19.94;33.31;96121.59;10552919;28;20044;-49
2023/04/25 14:49:38;;;;;;;2.22;1.80;;;;;;;19.81;31.77;96138.97;10552723;28;20047;-49
2023/04/25 14:55:00;;;;;;;3.92;1.67;;;;;;;19.65;31.44;96139.63;10552745;28;20081;-49
2023/04/25 15:00:20;;;;;;;4.45;1.90;;;;;;;19.54;31.51;96146.63;10552607;28;20097;-50
2023/04/25 15:05:40;;;;;;;2.53;1.70;;;;;;;19.48;31.95;96154.19;10552422;28;20044;-49
2023/04/25 15:11:00;;;;;;;5.45;3.75;;;;;;;19.58;34.19;96152.13;10552210;28;20040;-49
2023/04/25 15:16:20;;;;;;;64.50;39.65;;;;;;;19.71;37.15;96151.81;10552269;28;20036;-48
2023/04/25 15:21:39;;;;;;;55.78;33.88;;;;;;;19.80;38.53;96165.22;10552115;28;20400;-47
2023/04/25 15:26:59;;;;;;;28.73;18.58;;;;;;;19.84;36.49;96171.50;10544455;28;20056;-50
2023/04/25 15:32:18;;;;;;;10.05;7.00;;;;;;;19.73;32.76;96176.56;10551970;28;20036;-48
2023/04/25 15:37:38;;;;;;;16.80;10.32;;;;;;;19.76;35.74;96177.84;10551909;28;20044;-48
2023/04/25 15:42:58;;;;;;;12.90;8.50;;;;;;;19.84;37.96;96190.44;10556245;28;20130;-50
2023/04/25 15:48:18;;;;;;;16.83;11.13;;;;;;;19.88;38.46;96194.03;10559427;28;20079;-48
2023/04/25 15:53:37;;;;;;;15.07;10.20;;;;;;;19.92;39.00;96192.22;10559313;28;20032;-48
2023/04/25 15:58:56;;;;;;;13.77;9.52;;;;;;;19.94;39.44;96203.47;10559575;28;20044;-53
2023/04/25 16:04:16;;;;;;;14.35;9.13;;;;;;;19.98;39.82;96194.69;10558761;28;20066;-53
2023/04/25 16:09:35;;;;;;;15.25;9.32;;;;;;;20.01;40.14;96208.28;10558542;28;20044;-53
2023/04/25 16:14:56;;;;;;;13.07;9.02;;;;;;;20.04;40.44;96196.81;10558331;28;20407;-53
2023/04/25 16:20:16;;;;;;;11.82;8.18;;;;;;;20.05;40.71;96216.50;10558057;28;20089;-53
2023/04/25 16:25:36;;;;;;;11.30;7.88;;;;;;;20.09;41.03;96222.81;10554062;28;20412;-53
2023/04/25 16:30:55;;;;;;;10.57;7.03;;;;;;;20.10;40.98;96227.09;10544047;28;20048;-53
2023/04/25 16:36:15;;;;;;;9.85;6.28;;;;;;;20.11;41.02;96228.66;10557513;28;20048;-53
2023/04/25 16:41:34;;;;;;;9.43;6.57;;;;;;;20.14;41.72;96234.19;10557359;28;20107;-52
2023/04/25 16:46:54;;;;;;;10.20;6.80;;;;;;;20.17;41.85;96242.75;10541648;28;20104;-52
2023/04/25 16:52:14;;;;;;;10.88;6.35;;;;;;;20.18;42.26;96245.09;10556122;28;20044;-52
2023/04/25 16:57:35;;;;;;;8.48;5.60;;;;;;;20.19;42.38;96252.09;10556618;28;20044;-52
2023/04/25 17:02:55;;;;;;;6.43;5.25;;;;;;;20.20;42.45;96252.88;10556212;28;20052;-53
2023/04/25 17:08:15;;;;;;;6.50;5.03;;;;;;;20.21;42.70;96265.25;10555824;28;20411;-52
2023/04/25 17:13:35;;;;;;;6.78;5.38;;;;;;;20.21;42.94;96268.78;10555806;28;20040;-52
2023/04/25 17:18:57;;;;;;;6.15;4.90;;;;;;;20.22;43.14;96274.97;10555636;28;20063;-53
2023/04/25 17:24:17;;;;;;;5.90;4.82;;;;;;;20.22;43.49;96286.56;10555438;28;20438;-53
2023/04/25 17:29:36;;;;;;;6.75;4.97;;;;;;;20.23;43.73;96284.66;10555252;28;20040;-53
2023/04/25 17:34:57;;;;;;;5.18;4.10;;;;;;;20.23;44.11;96293.56;10555006;28;20074;-53
2023/04/25 17:40:16;;;;;;;5.85;4.63;;;;;;;20.24;44.26;96311.34;10554775;28;20510;-53
2023/04/25 17:45:36;;;;;;;6.05;4.70;;;;;;;20.24;44.34;96324.09;10554576;28;20048;-53
2023/04/25 17:50:55;;;;;;;4.93;4.07;;;;;;;20.24;44.34;96324.09;10554311;28;20048;-53
2023/04/25 17:56:15;;;;;;;4.90;4.35;;;;;;;20.25;44.42;96331.09;10554276;28;20043;-53
2023/04/25 18:01:34;;;;;;;7.05;4.20;;;;;;;20.24;44.52;96343.81;10553985;28;20044;-53
2023/04/25 18:06:54;;;;;;;5.03;3.42;;;;;;;20.24;44.61;96357.34;10552991;28;20050;-53
2023/04/25 18:12:14;;;;;;;4.35;3.70;;;;;;;20.24;44.64;96360.03;10553607;28;20501;-52
2023/04/25 18:17:39;;;;;;;5.90;4.00;;;;;;;20.24;44.70;96356.56;10553406;28;20044;-53
2023/04/25 18:22:58;;;;;;;4.18;3.40;;;;;;;20.24;44.82;96372.78;10553264;28;20492;-53
2023/04/25 18:28:18;;;;;;;5.28;3.88;;;;;;;20.23;44.82;96377.41;10541172;28;20044;-54
2023/04/25 18:33:38;;;;;;;5.13;3.85;;;;;;;20.22;45.20;96383.94;10552945;28;20097;-53
2023/04/25 18:38:59;;;;;;;4.78;3.95;;;;;;;20.22;45.73;96385.88;10552730;28;20051;-53
2023/04/25 18:44:18;;;;;;;4.22;3.80;;;;;;;20.22;45.84;96396.69;10552644;28;20094;-53
2023/04/25 18:49:38;;;;;;;3.97;3.13;;;;;;;20.22;46.05;96410.97;10552428;28;20044;-52
2023/04/25 18:54:58;;;;;;;5.57;3.72;;;;;;;20.23;46.31;96423.41;10537148;28;20495;-54
2023/04/25 19:00:17;;;;;;;4.45;3.70;;;;;;;20.22;46.40;96429.91;10552264;28;20048;-54
2023/04/25 19:05:37;;;;;;;4.82;3.70;;;;;;;20.22;46.40;96434.53;10552234;28;20059;-52
2023/04/25 19:10:57;;;;;;;7.53;3.40;;;;;;;20.22;46.37;96440.75;10552080;28;20040;-53
2023/04/25 19:16:17;;;;;;;4.07;3.33;;;;;;;20.21;46.44;96446.47;10554020;28;20553;-53
2023/04/25 19:21:37;;;;;;;3.83;3.42;;;;;;;20.20;46.35;96461.91;10560366;28;20040;-53
2023/04/25 19:26:56;;;;;;;3.97;3.50;;;;;;;20.19;46.31;96460.34;10552767;28;20048;-54
2023/04/25 19:32:16;;;;;;;4.35;3.35;;;;;;;20.18;46.21;96456.06;10560000;28;20411;-53
2023/04/25 19:37:35;;;;;;;3.40;2.90;;;;;;;20.18;46.41;96466.09;10559800;28;20048;-53
2023/04/25 19:42:54;;;;;;;4.50;3.45;;;;;;;20.15;46.42;96471.06;10559570;28;20043;-53
2023/04/25 19:48:14;;;;;;;3.75;3.35;;;;;;;20.15;46.48;96478.38;10559339;28;20055;-54
2023/04/25 19:53:33;;;;;;;4.35;3.10;;;;;;;20.14;46.53;96477.56;10559105;28;20051;-54
2023/04/25 19:58:52;;;;;;;3.78;3.17;;;;;;;20.14;46.38;96484.91;10545483;28;20105;-53
2023/04/25 20:04:12;;;;;;;4.53;3.30;;;;;;;20.13;46.51;96494.13;10558766;28;20065;-53
2023/04/25 20:09:32;;;;;;;4.28;2.97;;;;;;;20.12;46.59;96500.69;10558433;28;20048;-53
2023/04/25 20:14:51;;;;;;;4.65;3.10;;;;;;;20.11;46.62;96497.19;10558316;28;20058;-53
2023/04/25 20:20:11;;;;;;;3.97;2.80;;;;;;;20.10;46.64;96492.91;10558017;28;20044;-54
2023/04/25 20:25:30;;;;;;;4.88;3.20;;;;;;;20.10;46.78;96497.53;10554443;28;20052;-53
2023/04/25 20:30:50;;;;;;;3.15;2.10;;;;;;;20.10;47.02;96500.22;10556589;28;20044;-55
2023/04/25 20:36:10;;;;;;;3.28;2.72;;;;;;;20.08;46.25;96499.78;10557408;28;20044;-55
2023/04/25 20:41:30;;;;;;;5.15;2.60;;;;;;;20.02;43.39;96501.09;10557282;28;20389;-56
2023/04/25 20:46:50;;;;;;;5.30;2.80;;;;;;;20.03;45.56;96506.19;10557062;28;20047;-54
2023/04/25 20:52:09;;;;;;;4.43;2.70;;;;;;;20.04;45.77;96509.69;10543235;28;20070;-53
2023/04/25 20:57:29;;;;;;;5.60;2.65;;;;;;;20.04;45.69;96507.75;10543110;28;20059;-53
2023/04/25 21:02:49;;;;;;;5.45;3.00;;;;;;;20.04;45.83;96512.38;10556429;28;20040;-53
2023/04/25 21:08:09;;;;;;;5.00;2.75;;;;;;;20.03;46.11;96513.50;10556198;28;20047;-53
2023/04/25 21:13:28;;;;;;;4.40;2.83;;;;;;;20.03;46.32;96508.09;10542482;28;20060;-53
2023/04/25 21:18:48;;;;;;;4.35;2.90;;;;;;;20.03;46.33;96518.91;10555771;28;20048;-53
2023/04/25 21:24:08;;;;;;;3.38;2.78;;;;;;;20.00;46.50;96514.97;10555470;28;20040;-53
2023/04/25 21:29:28;;;;;;;5.82;2.92;;;;;;;20.00;46.49;96506.06;10555207;28;20054;-52
2023/04/25 21:34:47;;;;;;;4.55;2.92;;;;;;;20.00;46.49;96517.66;10555066;28;20059;-52
2023/04/25 21:40:08;;;;;;;5.30;2.83;;;;;;;19.98;46.54;96511.81;10554836;28;20055;-53
2023/04/25 21:45:28;;;;;;;3.58;2.55;;;;;;;19.98;46.63;96514.50;10554659;28;20040;-53
2023/04/25 21:50:47;;;;;;;5.80;2.88;;;;;;;19.96;46.66;96519.47;10554431;28;20484;-53
2023/04/25 21:56:07;;;;;;;4.32;3.00;;;;;;;19.96;46.65;96516.75;10554215;28;20048;-53
2023/04/25 22:01:27;;;;;;;5.57;2.92;;;;;;;19.94;46.72;96517.06;10554117;28;20055;-53
2023/04/25 22:06:47;;;;;;;6.35;3.28;;;;;;;19.94;46.80;96516.28;10553934;28;20036;-53
2023/04/25 22:12:06;;;;;;;6.13;2.88;;;;;;;19.91;46.86;96520.44;10553866;28;20102;-53
2023/04/25 22:17:26;;;;;;;9.95;3.88;;;;;;;19.92;46.94;96523.94;10553764;28;20040;-53
2023/04/25 22:22:46;;;;;;;11.35;3.92;;;;;;;19.91;46.84;96543.97;10553596;28;20048;-53
2023/04/25 22:28:05;;;;;;;11.23;3.75;;;;;;;19.90;46.98;96543.19;10542700;28;20047;-53
2023/04/25 22:33:25;;;;;;;11.07;4.10;;;;;;;19.89;46.97;96538.13;10537949;28;20446;-53
2023/04/25 22:38:45;;;;;;;10.63;4.25;;;;;;;19.89;47.11;96551.63;10553003;28;20044;-53
2023/04/25 22:44:05;;;;;;;14.57;4.60;;;;;;;19.88;47.06;96556.25;10553052;28;20043;-53
2023/04/25 22:49:25;;;;;;;9.73;3.85;;;;;;;19.87;47.12;96553.88;10552789;28;20097;-53
2023/04/25 22:54:45;;;;;;;12.02;4.82;;;;;;;19.86;47.18;96546.91;10552287;28;20377;-55
2023/04/25 23:00:09;;;;;;;14.23;5.05;;;;;;;19.84;47.20;96552.66;10537322;28;20044;-53
2023/04/25 23:05:29;;;;;;;13.95;5.65;;;;;;;19.85;47.70;96558.84;10552557;28;20056;-53
2023/04/25 23:10:48;;;;;;;11.50;4.40;;;;;;;19.83;48.08;96561.84;10552374;28;20047;-53
2023/04/25 23:16:09;;;;;;;11.48;4.25;;;;;;;19.82;48.15;96563.00;10552505;28;20040;-53
2023/04/25 23:21:29;;;;;;;12.25;4.10;;;;;;;19.81;48.26;96564.09;10552307;28;20048;-53
2023/04/25 23:26:48;;;;;;;10.18;4.05;;;;;;;19.80;48.26;96556.31;10545264;28;20071;-53
2023/04/25 23:32:07;;;;;;;11.10;3.47;;;;;;;19.79;48.27;96558.25;10552098;28;20043;-53
2023/04/25 23:37:28;;;;;;;10.55;4.43;;;;;;;19.78;48.02;96562.09;10551950;28;20045;-53
2023/04/25 23:42:48;;;;;;;9.73;3.80;;;;;;;19.76;47.94;96564.31;10551807;28;20101;-53
2023/04/25 23:48:08;;;;;;;8.60;3.47;;;;;;;19.76;47.84;96572.44;10551752;28;20070;-53
2023/04/25 23:53:27;;;;;;;8.88;3.78;;;;;;;19.75;47.80;96570.84;10551672;28;20040;-53
2023/04/25 23:58:47;;;;;;;7.18;3.38;;;;;;;19.73;47.79;96567.69;10551550;28;20399;-53
